sensor_id;sensor_type;location;lat;lon;timestamp;P1;durP1;ratioP1;P2;durP2;ratioP2
8113;SDS011;4099;52.684;9.918;2023-07-28T00:03:36;3.20;;;2.90;;
8113;SDS011;4099;52.684;9.918;2023-07-28T00:08:38;3.70;;;3.03;;
8113;SDS011;4099;52.684;9.918;2023-07-28T00:13:40;4.13;;;3.20;;
8113;SDS011;4099;52.684;9.918;2023-07-28T00:18:44;3.70;;;2.90;;
8113;SDS011;4099;52.684;9.918;2023-07-28T00:23:45;4.33;;;2.97;;
8113;SDS011;4099;52.684;9.918;2023-07-28T00:28:47;4.80;;;3.40;;
8113;SDS011;4099;52.684;9.918;2023-07-28T00:33:51;4.50;;;3.83;;
8113;SDS011;4099;52.684;9.918;2023-07-28T00:38:52;4.63;;;3.83;;
8113;SDS011;4099;52.684;9.918;2023-07-28T00:43:54;3.70;;;3.40;;
8113;SDS011;4099;52.684;9.918;2023-07-28T00:48:57;3.93;;;3.60;;
8113;SDS011;4099;52.684;9.918;2023-07-28T00:53:59;7.33;;;3.70;;
8113;SDS011;4099;52.684;9.918;2023-07-28T00:59:04;4.33;;;3.40;;
8113;SDS011;4099;52.684;9.918;2023-07-28T01:04:07;4.07;;;3.67;;
8113;SDS011;4099;52.684;9.918;2023-07-28T01:09:09;4.10;;;3.67;;
8113;SDS011;4099;52.684;9.918;2023-07-28T01:14:14;4.47;;;3.57;;
8113;SDS011;4099;52.684;9.918;2023-07-28T01:19:17;4.47;;;3.20;;
8113;SDS011;4099;52.684;9.918;2023-07-28T01:24:25;4.30;;;3.60;;
8113;SDS011;4099;52.684;9.918;2023-07-28T01:29:34;3.53;;;3.23;;
8113;SDS011;4099;52.684;9.918;2023-07-28T01:34:37;3.70;;;3.37;;
8113;SDS011;4099;52.684;9.918;2023-07-28T01:39:39;3.30;;;3.00;;
8113;SDS011;4099;52.684;9.918;2023-07-28T01:44:42;5.97;;;3.57;;
8113;SDS011;4099;52.684;9.918;2023-07-28T01:49:44;4.40;;;3.40;;
8113;SDS011;4099;52.684;9.918;2023-07-28T01:54:47;3.83;;;3.40;;
8113;SDS011;4099;52.684;9.918;2023-07-28T01:59:51;4.30;;;3.50;;
8113;SDS011;4099;52.684;9.918;2023-07-28T02:04:53;3.97;;;3.67;;
8113;SDS011;4099;52.684;9.918;2023-07-28T02:09:55;6.20;;;3.90;;
8113;SDS011;4099;52.684;9.918;2023-07-28T02:14:58;5.43;;;4.00;;
8113;SDS011;4099;52.684;9.918;2023-07-28T02:20:00;6.10;;;4.57;;
8113;SDS011;4099;52.684;9.918;2023-07-28T02:25:03;5.03;;;3.90;;
8113;SDS011;4099;52.684;9.918;2023-07-28T02:30:07;4.17;;;3.63;;
8113;SDS011;4099;52.684;9.918;2023-07-28T02:35:10;3.17;;;2.87;;
8113;SDS011;4099;52.684;9.918;2023-07-28T02:40:12;2.80;;;2.43;;
8113;SDS011;4099;52.684;9.918;2023-07-28T02:45:15;3.17;;;2.60;;
8113;SDS011;4099;52.684;9.918;2023-07-28T02:50:18;3.10;;;2.90;;
8113;SDS011;4099;52.684;9.918;2023-07-28T02:55:19;4.97;;;3.10;;
8113;SDS011;4099;52.684;9.918;2023-07-28T03:00:23;6.57;;;3.80;;
8113;SDS011;4099;52.684;9.918;2023-07-28T03:05:25;6.53;;;4.13;;
8113;SDS011;4099;52.684;9.918;2023-07-28T03:10:46;6.33;;;5.00;;
8113;SDS011;4099;52.684;9.918;2023-07-28T03:15:49;7.43;;;5.30;;
8113;SDS011;4099;52.684;9.918;2023-07-28T03:20:55;7.70;;;5.47;;
8113;SDS011;4099;52.684;9.918;2023-07-28T03:25:57;9.53;;;5.37;;
8113;SDS011;4099;52.684;9.918;2023-07-28T03:31:00;9.77;;;5.90;;
8113;SDS011;4099;52.684;9.918;2023-07-28T03:36:02;9.00;;;5.97;;
8113;SDS011;4099;52.684;9.918;2023-07-28T03:41:06;10.97;;;6.80;;
8113;SDS011;4099;52.684;9.918;2023-07-28T03:46:10;9.20;;;6.20;;
8113;SDS011;4099;52.684;9.918;2023-07-28T03:51:12;9.27;;;6.47;;
8113;SDS011;4099;52.684;9.918;2023-07-28T03:56:14;9.17;;;6.73;;
8113;SDS011;4099;52.684;9.918;2023-07-28T04:01:17;9.83;;;7.30;;
8113;SDS011;4099;52.684;9.918;2023-07-28T04:06:19;11.30;;;7.57;;
8113;SDS011;4099;52.684;9.918;2023-07-28T04:11:40;11.97;;;7.07;;
8113;SDS011;4099;52.684;9.918;2023-07-28T04:16:43;10.13;;;6.80;;
8113;SDS011;4099;52.684;9.918;2023-07-28T04:21:47;9.13;;;6.70;;
8113;SDS011;4099;52.684;9.918;2023-07-28T04:26:48;12.67;;;7.70;;
8113;SDS011;4099;52.684;9.918;2023-07-28T04:31:53;12.13;;;8.03;;
8113;SDS011;4099;52.684;9.918;2023-07-28T04:37:02;11.37;;;7.83;;
8113;SDS011;4099;52.684;9.918;2023-07-28T04:42:16;12.30;;;8.43;;
8113;SDS011;4099;52.684;9.918;2023-07-28T04:47:21;15.00;;;8.63;;
8113;SDS011;4099;52.684;9.918;2023-07-28T04:52:23;11.83;;;8.17;;
8113;SDS011;4099;52.684;9.918;2023-07-28T04:57:25;12.50;;;8.53;;
8113;SDS011;4099;52.684;9.918;2023-07-28T05:02:28;11.13;;;7.77;;
8113;SDS011;4099;52.684;9.918;2023-07-28T05:07:30;12.43;;;8.03;;
8113;SDS011;4099;52.684;9.918;2023-07-28T05:12:32;12.30;;;7.80;;
8113;SDS011;4099;52.684;9.918;2023-07-28T05:17:35;11.57;;;7.57;;
8113;SDS011;4099;52.684;9.918;2023-07-28T05:22:52;11.43;;;7.00;;
8113;SDS011;4099;52.684;9.918;2023-07-28T05:27:57;10.87;;;7.10;;
8113;SDS011;4099;52.684;9.918;2023-07-28T05:33:01;14.53;;;8.10;;
8113;SDS011;4099;52.684;9.918;2023-07-28T05:38:16;15.10;;;7.53;;
8113;SDS011;4099;52.684;9.918;2023-07-28T05:43:18;11.47;;;7.67;;
8113;SDS011;4099;52.684;9.918;2023-07-28T05:48:21;13.00;;;7.40;;
8113;SDS011;4099;52.684;9.918;2023-07-28T05:53:23;15.60;;;8.27;;
8113;SDS011;4099;52.684;9.918;2023-07-28T05:58:29;10.47;;;7.90;;
8113;SDS011;4099;52.684;9.918;2023-07-28T06:03:33;12.60;;;8.10;;
8113;SDS011;4099;52.684;9.918;2023-07-28T06:08:45;14.23;;;8.73;;
8113;SDS011;4099;52.684;9.918;2023-07-28T06:13:46;16.03;;;9.20;;
8113;SDS011;4099;52.684;9.918;2023-07-28T06:18:51;14.73;;;9.10;;
8113;SDS011;4099;52.684;9.918;2023-07-28T06:23:55;15.33;;;9.73;;
8113;SDS011;4099;52.684;9.918;2023-07-28T06:28:58;14.23;;;9.10;;
8113;SDS011;4099;52.684;9.918;2023-07-28T06:34:01;13.17;;;9.77;;
8113;SDS011;4099;52.684;9.918;2023-07-28T06:39:03;17.67;;;10.27;;
8113;SDS011;4099;52.684;9.918;2023-07-28T06:44:05;14.80;;;10.60;;
8113;SDS011;4099;52.684;9.918;2023-07-28T06:49:09;16.17;;;11.23;;
8113;SDS011;4099;52.684;9.918;2023-07-28T06:54:11;12.70;;;10.23;;
8113;SDS011;4099;52.684;9.918;2023-07-28T06:59:13;13.53;;;10.87;;
8113;SDS011;4099;52.684;9.918;2023-07-28T07:04:18;13.47;;;10.23;;
8113;SDS011;4099;52.684;9.918;2023-07-28T07:09:20;12.07;;;9.37;;
8113;SDS011;4099;52.684;9.918;2023-07-28T07:14:22;11.40;;;9.00;;
8113;SDS011;4099;52.684;9.918;2023-07-28T07:19:25;10.83;;;9.30;;
8113;SDS011;4099;52.684;9.918;2023-07-28T07:24:28;11.57;;;9.43;;
8113;SDS011;4099;52.684;9.918;2023-07-28T07:29:30;11.03;;;8.63;;
8113;SDS011;4099;52.684;9.918;2023-07-28T07:34:34;11.10;;;9.17;;
8113;SDS011;4099;52.684;9.918;2023-07-28T07:39:37;11.33;;;8.23;;
8113;SDS011;4099;52.684;9.918;2023-07-28T07:44:41;8.57;;;7.60;;
8113;SDS011;4099;52.684;9.918;2023-07-28T07:49:44;8.23;;;7.17;;
8113;SDS011;4099;52.684;9.918;2023-07-28T07:54:46;7.07;;;6.37;;
8113;SDS011;4099;52.684;9.918;2023-07-28T07:59:47;9.20;;;6.03;;
8113;SDS011;4099;52.684;9.918;2023-07-28T08:04:51;6.37;;;5.77;;
8113;SDS011;4099;52.684;9.918;2023-07-28T08:09:54;6.40;;;5.80;;
8113;SDS011;4099;52.684;9.918;2023-07-28T08:14:57;6.53;;;4.90;;
8113;SDS011;4099;52.684;9.918;2023-07-28T08:20:00;6.30;;;5.50;;
8113;SDS011;4099;52.684;9.918;2023-07-28T08:25:02;6.03;;;5.43;;
8113;SDS011;4099;52.684;9.918;2023-07-28T08:30:05;7.27;;;4.77;;
8113;SDS011;4099;52.684;9.918;2023-07-28T08:35:08;5.43;;;5.03;;
8113;SDS011;4099;52.684;9.918;2023-07-28T08:40:11;6.60;;;6.00;;
8113;SDS011;4099;52.684;9.918;2023-07-28T08:45:13;7.23;;;6.53;;
8113;SDS011;4099;52.684;9.918;2023-07-28T08:50:16;7.77;;;6.57;;
8113;SDS011;4099;52.684;9.918;2023-07-28T08:55:18;8.33;;;7.47;;
8113;SDS011;4099;52.684;9.918;2023-07-28T09:00:21;6.50;;;6.00;;
8113;SDS011;4099;52.684;9.918;2023-07-28T09:05:27;6.87;;;6.27;;
8113;SDS011;4099;52.684;9.918;2023-07-28T09:10:34;6.93;;;6.23;;
8113;SDS011;4099;52.684;9.918;2023-07-28T09:15:41;6.60;;;6.10;;
8113;SDS011;4099;52.684;9.918;2023-07-28T09:20:45;7.53;;;6.73;;
8113;SDS011;4099;52.684;9.918;2023-07-28T09:25:46;7.80;;;7.10;;
8113;SDS011;4099;52.684;9.918;2023-07-28T09:30:49;7.60;;;6.90;;
8113;SDS011;4099;52.684;9.918;2023-07-28T09:35:52;7.57;;;6.83;;
8113;SDS011;4099;52.684;9.918;2023-07-28T09:40:54;10.23;;;9.23;;
8113;SDS011;4099;52.684;9.918;2023-07-28T09:45:58;7.77;;;7.17;;
8113;SDS011;4099;52.684;9.918;2023-07-28T09:51:05;7.13;;;6.53;;
8113;SDS011;4099;52.684;9.918;2023-07-28T09:56:17;7.17;;;6.47;;
8113;SDS011;4099;52.684;9.918;2023-07-28T10:01:23;6.60;;;6.10;;
8113;SDS011;4099;52.684;9.918;2023-07-28T10:06:25;6.37;;;5.67;;
8113;SDS011;4099;52.684;9.918;2023-07-28T10:11:29;5.90;;;5.40;;
8113;SDS011;4099;52.684;9.918;2023-07-28T10:16:37;6.33;;;5.83;;
8113;SDS011;4099;52.684;9.918;2023-07-28T10:21:39;6.40;;;5.83;;
8113;SDS011;4099;52.684;9.918;2023-07-28T10:26:43;5.93;;;5.43;;
8113;SDS011;4099;52.684;9.918;2023-07-28T10:31:49;5.70;;;5.20;;
8113;SDS011;4099;52.684;9.918;2023-07-28T10:36:58;5.13;;;4.63;;
8113;SDS011;4099;52.684;9.918;2023-07-28T10:42:03;4.50;;;4.20;;
8113;SDS011;4099;52.684;9.918;2023-07-28T10:47:07;5.67;;;5.27;;
8113;SDS011;4099;52.684;9.918;2023-07-28T10:52:09;4.27;;;3.97;;
8113;SDS011;4099;52.684;9.918;2023-07-28T10:57:12;4.80;;;4.40;;
8113;SDS011;4099;52.684;9.918;2023-07-28T11:02:15;4.80;;;4.40;;
8113;SDS011;4099;52.684;9.918;2023-07-28T11:07:17;4.23;;;3.93;;
8113;SDS011;4099;52.684;9.918;2023-07-28T11:12:20;4.73;;;4.37;;
8113;SDS011;4099;52.684;9.918;2023-07-28T11:17:22;4.23;;;3.93;;
8113;SDS011;4099;52.684;9.918;2023-07-28T11:22:27;5.23;;;4.73;;
8113;SDS011;4099;52.684;9.918;2023-07-28T11:27:30;4.37;;;3.97;;
8113;SDS011;4099;52.684;9.918;2023-07-28T11:32:34;3.80;;;3.40;;
8113;SDS011;4099;52.684;9.918;2023-07-28T11:37:36;4.03;;;3.27;;
8113;SDS011;4099;52.684;9.918;2023-07-28T11:42:43;3.63;;;3.33;;
8113;SDS011;4099;52.684;9.918;2023-07-28T11:47:55;3.83;;;3.17;;
8113;SDS011;4099;52.684;9.918;2023-07-28T11:52:58;3.80;;;3.47;;
8113;SDS011;4099;52.684;9.918;2023-07-28T11:58:01;3.80;;;3.50;;
8113;SDS011;4099;52.684;9.918;2023-07-28T12:03:05;4.30;;;3.97;;
8113;SDS011;4099;52.684;9.918;2023-07-28T12:08:10;4.03;;;3.60;;
8113;SDS011;4099;52.684;9.918;2023-07-28T12:13:13;4.10;;;3.80;;
8113;SDS011;4099;52.684;9.918;2023-07-28T12:18:15;4.13;;;3.77;;
8113;SDS011;4099;52.684;9.918;2023-07-28T12:23:20;4.93;;;4.00;;
8113;SDS011;4099;52.684;9.918;2023-07-28T12:28:24;3.77;;;3.57;;
8113;SDS011;4099;52.684;9.918;2023-07-28T12:33:25;4.10;;;3.80;;
8113;SDS011;4099;52.684;9.918;2023-07-28T12:38:27;4.50;;;4.10;;
8113;SDS011;4099;52.684;9.918;2023-07-28T12:43:30;4.40;;;4.00;;
8113;SDS011;4099;52.684;9.918;2023-07-28T12:48:32;4.53;;;3.63;;
8113;SDS011;4099;52.684;9.918;2023-07-28T12:53:34;3.97;;;3.67;;
8113;SDS011;4099;52.684;9.918;2023-07-28T12:58:37;6.07;;;5.57;;
8113;SDS011;4099;52.684;9.918;2023-07-28T13:03:39;4.63;;;4.23;;
8113;SDS011;4099;52.684;9.918;2023-07-28T13:08:41;5.17;;;4.67;;
8113;SDS011;4099;52.684;9.918;2023-07-28T13:13:44;4.83;;;4.43;;
8113;SDS011;4099;52.684;9.918;2023-07-28T13:18:46;4.43;;;4.13;;
8113;SDS011;4099;52.684;9.918;2023-07-28T13:23:48;4.60;;;4.20;;
8113;SDS011;4099;52.684;9.918;2023-07-28T13:28:51;4.73;;;4.33;;
8113;SDS011;4099;52.684;9.918;2023-07-28T13:33:53;4.70;;;4.40;;
8113;SDS011;4099;52.684;9.918;2023-07-28T13:38:55;4.73;;;4.33;;
8113;SDS011;4099;52.684;9.918;2023-07-28T13:43:58;5.47;;;4.97;;
8113;SDS011;4099;52.684;9.918;2023-07-28T13:48:59;4.73;;;4.33;;
8113;SDS011;4099;52.684;9.918;2023-07-28T13:54:01;5.47;;;4.47;;
8113;SDS011;4099;52.684;9.918;2023-07-28T13:59:04;4.57;;;4.17;;
8113;SDS011;4099;52.684;9.918;2023-07-28T14:04:06;4.17;;;3.87;;
8113;SDS011;4099;52.684;9.918;2023-07-28T14:09:08;4.60;;;4.20;;
8113;SDS011;4099;52.684;9.918;2023-07-28T14:14:12;5.10;;;4.70;;
8113;SDS011;4099;52.684;9.918;2023-07-28T14:19:13;5.93;;;3.73;;
8113;SDS011;4099;52.684;9.918;2023-07-28T14:24:15;5.77;;;4.27;;
8113;SDS011;4099;52.684;9.918;2023-07-28T14:29:18;5.23;;;4.83;;
8113;SDS011;4099;52.684;9.918;2023-07-28T14:34:20;4.70;;;4.30;;
8113;SDS011;4099;52.684;9.918;2023-07-28T14:39:22;4.10;;;3.73;;
8113;SDS011;4099;52.684;9.918;2023-07-28T14:44:26;3.90;;;3.60;;
8113;SDS011;4099;52.684;9.918;2023-07-28T14:49:27;5.07;;;4.60;;
8113;SDS011;4099;52.684;9.918;2023-07-28T14:54:29;4.40;;;4.10;;
8113;SDS011;4099;52.684;9.918;2023-07-28T14:59:32;4.10;;;3.80;;
8113;SDS011;4099;52.684;9.918;2023-07-28T15:04:34;5.23;;;3.93;;
8113;SDS011;4099;52.684;9.918;2023-07-28T15:09:36;3.93;;;3.53;;
8113;SDS011;4099;52.684;9.918;2023-07-28T15:14:39;4.23;;;3.90;;
8113;SDS011;4099;52.684;9.918;2023-07-28T15:19:41;4.83;;;4.00;;
8113;SDS011;4099;52.684;9.918;2023-07-28T15:24:43;3.83;;;3.60;;
8113;SDS011;4099;52.684;9.918;2023-07-28T15:29:46;4.23;;;3.50;;
8113;SDS011;4099;52.684;9.918;2023-07-28T15:34:47;4.73;;;4.17;;
8113;SDS011;4099;52.684;9.918;2023-07-28T15:39:49;5.13;;;4.63;;
8113;SDS011;4099;52.684;9.918;2023-07-28T15:44:52;4.90;;;4.43;;
8113;SDS011;4099;52.684;9.918;2023-07-28T15:49:54;4.30;;;4.00;;
8113;SDS011;4099;52.684;9.918;2023-07-28T15:54:56;4.77;;;4.37;;
8113;SDS011;4099;52.684;9.918;2023-07-28T16:00:00;4.83;;;4.13;;
8113;SDS011;4099;52.684;9.918;2023-07-28T16:05:12;4.00;;;3.70;;
8113;SDS011;4099;52.684;9.918;2023-07-28T16:10:14;4.27;;;3.40;;
8113;SDS011;4099;52.684;9.918;2023-07-28T16:15:17;5.00;;;4.43;;
8113;SDS011;4099;52.684;9.918;2023-07-28T16:20:19;4.67;;;4.27;;
8113;SDS011;4099;52.684;9.918;2023-07-28T16:25:21;4.97;;;4.57;;
8113;SDS011;4099;52.684;9.918;2023-07-28T16:30:24;6.27;;;5.40;;
8113;SDS011;4099;52.684;9.918;2023-07-28T16:35:26;5.50;;;5.10;;
8113;SDS011;4099;52.684;9.918;2023-07-28T16:40:28;4.83;;;4.43;;
8113;SDS011;4099;52.684;9.918;2023-07-28T16:45:32;4.40;;;4.00;;
8113;SDS011;4099;52.684;9.918;2023-07-28T16:50:34;4.23;;;3.93;;
8113;SDS011;4099;52.684;9.918;2023-07-28T16:55:36;3.97;;;3.67;;
8113;SDS011;4099;52.684;9.918;2023-07-28T17:00:39;4.27;;;3.57;;
8113;SDS011;4099;52.684;9.918;2023-07-28T17:05:41;3.40;;;3.20;;
8113;SDS011;4099;52.684;9.918;2023-07-28T17:10:43;7.13;;;3.40;;
8113;SDS011;4099;52.684;9.918;2023-07-28T17:15:47;3.13;;;2.80;;
8113;SDS011;4099;52.684;9.918;2023-07-28T17:20:49;3.73;;;3.43;;
8113;SDS011;4099;52.684;9.918;2023-07-28T17:25:51;3.30;;;3.10;;
8113;SDS011;4099;52.684;9.918;2023-07-28T17:30:54;3.00;;;2.80;;
8113;SDS011;4099;52.684;9.918;2023-07-28T17:35:56;2.60;;;2.50;;
8113;SDS011;4099;52.684;9.918;2023-07-28T17:41:00;2.67;;;2.47;;
8113;SDS011;4099;52.684;9.918;2023-07-28T17:46:03;2.70;;;2.50;;
8113;SDS011;4099;52.684;9.918;2023-07-28T17:51:05;2.60;;;2.45;;
8113;SDS011;4099;52.684;9.918;2023-07-28T17:56:07;3.00;;;2.80;;
8113;SDS011;4099;52.684;9.918;2023-07-28T18:01:10;3.70;;;2.80;;
8113;SDS011;4099;52.684;9.918;2023-07-28T18:06:12;2.80;;;2.60;;
8113;SDS011;4099;52.684;9.918;2023-07-28T18:11:14;3.53;;;3.20;;
8113;SDS011;4099;52.684;9.918;2023-07-28T18:16:17;3.20;;;2.80;;
8113;SDS011;4099;52.684;9.918;2023-07-28T18:21:20;3.60;;;3.30;;
8113;SDS011;4099;52.684;9.918;2023-07-28T18:26:22;3.30;;;3.00;;
8113;SDS011;4099;52.684;9.918;2023-07-28T18:31:25;3.20;;;2.90;;
8113;SDS011;4099;52.684;9.918;2023-07-28T18:36:27;3.90;;;3.60;;
8113;SDS011;4099;52.684;9.918;2023-07-28T18:41:29;3.50;;;3.20;;
8113;SDS011;4099;52.684;9.918;2023-07-28T18:46:32;3.93;;;3.57;;
8113;SDS011;4099;52.684;9.918;2023-07-28T18:51:34;3.73;;;3.53;;
8113;SDS011;4099;52.684;9.918;2023-07-28T18:56:36;3.50;;;3.30;;
8113;SDS011;4099;52.684;9.918;2023-07-28T19:01:39;3.73;;;3.53;;
8113;SDS011;4099;52.684;9.918;2023-07-28T19:06:41;3.80;;;3.50;;
8113;SDS011;4099;52.684;9.918;2023-07-28T19:11:43;4.57;;;4.27;;
8113;SDS011;4099;52.684;9.918;2023-07-28T19:16:46;4.43;;;4.03;;
8113;SDS011;4099;52.684;9.918;2023-07-28T19:21:49;3.90;;;3.60;;
8113;SDS011;4099;52.684;9.918;2023-07-28T19:26:51;4.60;;;4.30;;
8113;SDS011;4099;52.684;9.918;2023-07-28T19:31:55;4.40;;;4.10;;
8113;SDS011;4099;52.684;9.918;2023-07-28T19:36:56;4.10;;;3.80;;
8113;SDS011;4099;52.684;9.918;2023-07-28T19:41:58;4.23;;;3.93;;
8113;SDS011;4099;52.684;9.918;2023-07-28T19:47:02;4.90;;;4.47;;
8113;SDS011;4099;52.684;9.918;2023-07-28T19:52:07;4.60;;;4.27;;
8113;SDS011;4099;52.684;9.918;2023-07-28T19:57:09;5.67;;;5.17;;
8113;SDS011;4099;52.684;9.918;2023-07-28T20:02:12;6.20;;;5.70;;
8113;SDS011;4099;52.684;9.918;2023-07-28T20:07:14;6.80;;;5.30;;
8113;SDS011;4099;52.684;9.918;2023-07-28T20:12:15;5.53;;;5.03;;
8113;SDS011;4099;52.684;9.918;2023-07-28T20:17:19;6.30;;;5.00;;
8113;SDS011;4099;52.684;9.918;2023-07-28T20:22:21;5.63;;;5.23;;
8113;SDS011;4099;52.684;9.918;2023-07-28T20:27:22;6.40;;;5.63;;
8113;SDS011;4099;52.684;9.918;2023-07-28T20:32:28;6.10;;;5.70;;
8113;SDS011;4099;52.684;9.918;2023-07-28T20:37:30;6.73;;;6.23;;
8113;SDS011;4099;52.684;9.918;2023-07-28T20:42:32;6.83;;;6.33;;
8113;SDS011;4099;52.684;9.918;2023-07-28T20:47:35;7.67;;;7.00;;
8113;SDS011;4099;52.684;9.918;2023-07-28T20:52:38;8.53;;;7.77;;
8113;SDS011;4099;52.684;9.918;2023-07-28T20:57:42;9.03;;;8.33;;
8113;SDS011;4099;52.684;9.918;2023-07-28T21:02:45;8.23;;;7.63;;
8113;SDS011;4099;52.684;9.918;2023-07-28T21:07:47;8.10;;;7.27;;
8113;SDS011;4099;52.684;9.918;2023-07-28T21:12:49;8.40;;;7.70;;
8113;SDS011;4099;52.684;9.918;2023-07-28T21:17:52;7.97;;;7.37;;
8113;SDS011;4099;52.684;9.918;2023-07-28T21:22:54;8.13;;;7.43;;
8113;SDS011;4099;52.684;9.918;2023-07-28T21:27:55;8.50;;;7.80;;
8113;SDS011;4099;52.684;9.918;2023-07-28T21:32:59;9.30;;;8.50;;
8113;SDS011;4099;52.684;9.918;2023-07-28T21:38:02;8.67;;;7.97;;
8113;SDS011;4099;52.684;9.918;2023-07-28T21:43:04;9.50;;;8.70;;
8113;SDS011;4099;52.684;9.918;2023-07-28T21:48:07;9.83;;;8.93;;
8113;SDS011;4099;52.684;9.918;2023-07-28T21:53:10;9.03;;;8.30;;
8113;SDS011;4099;52.684;9.918;2023-07-28T21:58:12;11.20;;;10.03;;
8113;SDS011;4099;52.684;9.918;2023-07-28T22:03:15;9.63;;;8.67;;
8113;SDS011;4099;52.684;9.918;2023-07-28T22:08:17;9.60;;;8.70;;
8113;SDS011;4099;52.684;9.918;2023-07-28T22:13:20;8.60;;;7.90;;
8113;SDS011;4099;52.684;9.918;2023-07-28T22:18:23;10.07;;;9.07;;
8113;SDS011;4099;52.684;9.918;2023-07-28T22:23:25;9.57;;;8.77;;
8113;SDS011;4099;52.684;9.918;2023-07-28T22:28:26;8.93;;;8.10;;
8113;SDS011;4099;52.684;9.918;2023-07-28T22:33:29;9.30;;;8.50;;
8113;SDS011;4099;52.684;9.918;2023-07-28T22:38:31;9.57;;;8.57;;
8113;SDS011;4099;52.684;9.918;2023-07-28T22:43:33;8.97;;;8.27;;
8113;SDS011;4099;52.684;9.918;2023-07-28T22:48:36;10.40;;;9.00;;
8113;SDS011;4099;52.684;9.918;2023-07-28T22:53:38;10.27;;;9.37;;
8113;SDS011;4099;52.684;9.918;2023-07-28T22:58:40;10.40;;;9.50;;
8113;SDS011;4099;52.684;9.918;2023-07-28T23:03:43;9.53;;;8.73;;
8113;SDS011;4099;52.684;9.918;2023-07-28T23:08:44;9.23;;;8.47;;
8113;SDS011;4099;52.684;9.918;2023-07-28T23:13:46;9.67;;;8.87;;
8113;SDS011;4099;52.684;9.918;2023-07-28T23:18:49;8.63;;;7.83;;
8113;SDS011;4099;52.684;9.918;2023-07-28T23:23:51;8.60;;;7.80;;
8113;SDS011;4099;52.684;9.918;2023-07-28T23:28:53;8.90;;;8.20;;
8113;SDS011;4099;52.684;9.918;2023-07-28T23:33:56;8.43;;;7.70;;
8113;SDS011;4099;52.684;9.918;2023-07-28T23:38:58;8.33;;;7.63;;
8113;SDS011;4099;52.684;9.918;2023-07-28T23:44:00;8.30;;;7.60;;
8113;SDS011;4099;52.684;9.918;2023-07-28T23:49:03;8.17;;;7.37;;
8113;SDS011;4099;52.684;9.918;2023-07-28T23:54:05;8.10;;;7.40;;
8113;SDS011;4099;52.684;9.918;2023-07-28T23:59:07;9.30;;;8.40;;
